createdAt,value
2019-01-18T00:00:46.664Z,64.3
2019-01-18T00:01:37.001Z,64.3
2019-01-18T00:02:25.943Z,64.3
2019-01-18T00:03:32.107Z,64.2
2019-01-18T00:04:07.156Z,64.2
2019-01-18T00:04:57.219Z,64.2
2019-01-18T00:05:46.988Z,64.2
2019-01-18T00:06:37.350Z,64.2
2019-01-18T00:07:27.388Z,64.2
2019-01-18T00:08:17.481Z,64.1
2019-01-18T00:09:06.952Z,64.1
2019-01-18T00:09:57.277Z,64.1
2019-01-18T00:10:47.055Z,64.1
2019-01-18T00:11:37.118Z,64.1
2019-01-18T00:12:27.740Z,64.1
2019-01-18T00:13:17.508Z,64.1
2019-01-18T00:14:08.123Z,64.1
2019-01-18T00:14:58.175Z,64.1
2019-01-18T00:15:48.270Z,64.1
2019-01-18T00:16:37.190Z,64.1
2019-01-18T00:17:28.080Z,64.1
2019-01-18T00:18:17.580Z,64.1
2019-01-18T00:19:07.646Z,64.1
2019-01-18T00:19:58.570Z,64.1
2019-01-18T00:20:47.480Z,64.1
2019-01-18T00:21:38.118Z,64.1
2019-01-18T00:22:28.420Z,64
2019-01-18T00:23:18.755Z,64
2019-01-18T00:24:08.810Z,64
2019-01-18T00:24:58.595Z,64
2019-01-18T00:25:48.092Z,64
2019-01-18T00:26:38.998Z,63.9
2019-01-18T00:27:28.757Z,63.9
2019-01-18T00:28:19.165Z,63.9
2019-01-18T00:29:08.887Z,63.9
2019-01-18T00:29:58.927Z,63.9
2019-01-18T00:30:48.722Z,63.9
2019-01-18T00:31:38.489Z,63.9
2019-01-18T00:32:28.546Z,63.9
2019-01-18T00:33:19.450Z,63.9
2019-01-18T00:34:09.214Z,63.9
2019-01-18T00:34:59.301Z,63.9
2019-01-18T00:35:49.340Z,63.9
2019-01-18T00:36:39.117Z,63.9
2019-01-18T00:37:29.453Z,63.9
2019-01-18T00:38:18.932Z,63.9
2019-01-18T00:39:09.829Z,63.9
2019-01-18T00:39:59.346Z,63.8
2019-01-18T00:40:49.401Z,63.8
2019-01-18T03:08:42.405Z,62.3
2019-01-18T03:09:31.152Z,62.3
2019-01-18T03:10:22.512Z,62.3
2019-01-18T03:11:12.651Z,62.3
2019-01-18T03:12:01.889Z,62.3
2019-01-18T03:12:52.966Z,62.3
2019-01-18T03:13:42.510Z,62.3
2019-01-18T03:14:33.054Z,62.3
2019-01-18T03:15:22.650Z,62.3
2019-01-18T03:16:11.862Z,62.3
2019-01-18T03:17:02.164Z,62.3
2019-01-18T03:17:52.564Z,62.2
2019-01-18T03:18:42.654Z,62.2
2019-01-18T03:19:33.487Z,62.2
2019-01-18T03:20:22.975Z,62.2
2019-01-18T03:21:12.974Z,62.2
2019-01-18T03:22:52.951Z,62.2
2019-01-18T03:23:43.158Z,62.1
2019-01-18T03:24:33.049Z,62.2
2019-01-18T03:25:22.816Z,62.1
2019-01-18T03:26:12.838Z,62.1
2019-01-18T03:27:03.432Z,62.1
2019-01-18T03:27:53.510Z,62.1
2019-01-18T03:28:42.997Z,62.1
2019-01-18T03:29:33.608Z,62.1
2019-01-18T03:30:24.537Z,62.1
2019-01-18T03:31:13.831Z,62.1
2019-01-18T03:32:03.849Z,62.1
2019-01-18T03:32:54.054Z,62.1
2019-01-18T03:33:43.371Z,62.1
2019-01-18T03:34:33.953Z,62.1
2019-01-18T03:35:23.988Z,62.1
2019-01-18T03:36:13.789Z,62.1
2019-01-18T03:37:04.173Z,62.1
2019-01-18T03:37:54.207Z,62
2019-01-18T03:38:44.248Z,62
2019-01-18T03:39:34.301Z,62
2019-01-18T03:40:24.100Z,62
2019-01-18T03:41:13.407Z,62
2019-01-18T03:42:03.710Z,62
2019-01-18T03:42:54.089Z,62
2019-01-18T03:43:43.884Z,61.9
2019-01-18T03:44:33.872Z,61.9
2019-01-18T03:45:23.883Z,61.9
2019-01-18T03:46:14.762Z,61.9
2019-01-18T03:47:04.827Z,61.9
2019-01-18T03:47:54.314Z,61.9
2019-01-18T03:48:44.073Z,61.9
2019-01-18T03:49:35.519Z,61.9
2019-01-18T03:50:25.003Z,61.9
2019-01-18T03:51:15.019Z,61.9
2019-01-18T03:52:05.071Z,61.9
2019-01-18T03:52:55.436Z,61.9
2019-01-18T03:53:45.422Z,61.9
2019-01-18T03:54:35.039Z,61.8
2019-01-18T03:55:25.355Z,61.8
2019-01-18T03:56:15.650Z,61.8
2019-01-18T03:57:05.436Z,61.8
2019-01-18T03:57:55.459Z,61.8
2019-01-18T03:58:45.813Z,61.8
2019-01-18T03:59:35.653Z,61.8
2019-01-18T04:00:30.064Z,61.8
2019-01-18T04:01:15.977Z,61.8
2019-01-18T04:02:05.802Z,61.8
2019-01-18T04:02:56.418Z,61.8
2019-01-18T04:03:45.663Z,61.8
2019-01-18T04:04:36.000Z,61.8
2019-01-18T04:05:26.292Z,61.8
2019-01-18T04:06:16.621Z,61.7
2019-01-18T04:07:06.665Z,61.8
2019-01-18T04:07:56.163Z,61.8
2019-01-18T04:08:46.571Z,61.7
2019-01-18T04:09:36.815Z,61.7
2019-01-18T04:10:26.070Z,61.7
2019-01-18T04:11:16.385Z,61.7
2019-01-18T04:12:06.436Z,61.7
2019-01-18T04:12:56.508Z,61.6
2019-01-18T04:13:46.357Z,61.7
2019-01-18T04:14:36.388Z,61.6
2019-01-18T04:15:26.257Z,61.6
2019-01-18T04:16:16.240Z,61.6
2019-01-18T04:17:06.861Z,61.6
2019-01-18T04:17:56.734Z,61.6
2019-01-18T04:18:46.990Z,61.6
2019-01-18T04:19:36.930Z,61.6
2019-01-18T04:20:27.278Z,61.6
2019-01-18T04:21:17.350Z,61.6
2019-01-18T04:22:07.702Z,61.6
2019-01-18T04:22:57.500Z,61.6
2019-01-18T04:23:47.324Z,61.6
2019-01-18T04:24:37.563Z,61.6
2019-01-18T04:25:27.965Z,61.5
2019-01-18T04:26:17.950Z,61.5
2019-01-18T04:27:07.995Z,61.5
2019-01-18T04:27:57.799Z,61.5
2019-01-18T04:28:48.167Z,61.5
2019-01-18T04:29:37.352Z,61.5
2019-01-18T04:30:36.314Z,61.5
2019-01-18T04:31:18.307Z,61.4
2019-01-18T04:32:08.064Z,61.4
2019-01-18T04:32:58.169Z,61.4
2019-01-18T04:33:48.211Z,61.4
2019-01-18T04:34:38.239Z,61.4
2019-01-18T04:35:28.586Z,61.4
2019-01-18T04:36:18.385Z,61.4
2019-01-18T04:37:08.688Z,61.4
2019-01-18T04:37:58.520Z,61.4
2019-01-18T04:38:48.556Z,61.4
2019-01-18T04:39:38.312Z,61.4
2019-01-18T04:40:28.947Z,61.4
2019-01-18T04:41:19.001Z,61.4
2019-01-18T04:42:08.484Z,61.3
2019-01-18T04:42:58.556Z,61.3
2019-01-18T04:43:49.156Z,61.3
2019-01-18T04:44:39.206Z,61.3
2019-01-18T04:45:28.423Z,61.3
2019-01-18T04:46:18.768Z,61.3
2019-01-18T04:47:08.564Z,61.3
2019-01-18T04:47:59.415Z,61.3
2019-01-18T04:48:48.648Z,61.3
2019-01-18T04:49:39.032Z,61.3
2019-01-18T04:50:29.611Z,61.3
2019-01-18T04:51:19.365Z,61.3
2019-01-18T04:52:09.435Z,61.3
2019-01-18T04:52:59.235Z,61.3
2019-01-18T04:53:49.265Z,61.2
2019-01-18T04:54:39.318Z,61.2
2019-01-18T04:55:44.313Z,61.2
2019-01-18T04:56:19.427Z,61.2
2019-01-18T04:57:10.026Z,61.2
2019-01-18T04:57:59.274Z,61.2
2019-01-18T04:58:49.332Z,61.2
2019-01-18T04:59:40.215Z,61.2
2019-01-18T05:00:30.295Z,61.1
2019-01-18T05:01:20.341Z,61.1
2019-01-18T05:02:09.834Z,61.1
2019-01-18T05:03:00.455Z,61.1
2019-01-18T05:03:50.520Z,61.1
2019-01-18T05:04:40.328Z,61.1
2019-01-18T05:05:29.815Z,61.1
2019-01-18T05:06:19.565Z,61.1
2019-01-18T05:07:10.447Z,61.1
2019-01-18T05:08:00.229Z,61.1
2019-01-18T05:08:50.585Z,61.1
2019-01-18T05:09:40.345Z,61.1
2019-01-18T05:10:30.394Z,61.1
2019-01-18T05:11:20.993Z,61
2019-01-18T05:12:10.512Z,61
2019-01-18T05:13:01.119Z,61
2019-01-18T05:13:50.950Z,61
2019-01-18T05:14:40.949Z,61
2019-01-18T05:15:30.795Z,61
2019-01-18T05:16:21.356Z,60.9
2019-01-18T05:17:11.116Z,61
2019-01-18T05:18:01.544Z,60.9
2019-01-18T05:18:51.264Z,60.9
2019-01-18T05:19:43.077Z,60.9
2019-01-18T05:20:31.394Z,60.9
2019-01-18T05:21:21.153Z,60.9
2019-01-18T05:22:11.162Z,60.9
2019-01-18T05:23:01.532Z,60.9
2019-01-18T05:23:51.301Z,60.9
2019-01-18T05:24:41.338Z,60.9
2019-01-18T05:25:31.709Z,60.9
2019-01-18T05:26:21.471Z,60.8
2019-01-18T05:27:11.801Z,60.8
2019-01-18T05:28:01.321Z,60.8
2019-01-18T05:28:52.204Z,60.8
2019-01-18T05:29:41.193Z,60.8
2019-01-18T05:30:32.041Z,60.8
2019-01-18T05:31:22.070Z,60.8
2019-01-18T05:32:11.395Z,60.8
2019-01-18T05:33:02.018Z,60.8
2019-01-18T05:33:52.039Z,60.8
2019-01-18T05:34:41.845Z,60.8
2019-01-18T05:35:32.184Z,60.8
2019-01-18T05:36:22.248Z,60.8
2019-01-18T05:37:12.003Z,60.8
2019-01-18T05:38:02.050Z,60.8
2019-01-18T05:38:52.122Z,60.7
2019-01-18T05:39:42.440Z,60.7
2019-01-18T05:40:32.210Z,60.7
2019-01-18T05:41:22.283Z,60.8
2019-01-18T05:42:12.802Z,60.7
2019-01-18T05:43:02.890Z,60.7
2019-01-18T05:43:52.427Z,60.7
2019-01-18T05:44:43.752Z,60.6
2019-01-18T05:45:32.817Z,60.6
2019-01-18T05:46:22.381Z,60.6
2019-01-18T05:47:12.944Z,60.6
2019-01-18T05:48:02.648Z,60.6
2019-01-18T05:48:53.550Z,60.6
2019-01-18T05:49:43.352Z,60.6
2019-01-18T05:50:32.334Z,60.6
2019-01-18T05:51:23.202Z,60.6
2019-01-18T05:52:13.547Z,60.6
2019-01-18T05:53:03.547Z,60.6
2019-01-18T05:53:54.098Z,60.6
2019-01-18T05:54:43.656Z,60.6
2019-01-18T05:55:33.992Z,60.5
2019-01-18T05:56:23.757Z,60.5
2019-01-18T05:57:13.866Z,60.5
2019-01-18T05:58:03.591Z,60.5
2019-01-18T05:58:53.644Z,60.5
2019-01-18T05:59:43.709Z,60.5
2019-01-18T06:00:34.054Z,60.5
2019-01-18T06:01:24.725Z,60.5
2019-01-18T06:02:13.871Z,60.4
2019-01-18T06:03:04.495Z,60.4
2019-01-18T06:03:54.316Z,60.4
2019-01-18T06:04:44.589Z,60.4
2019-01-18T06:06:42.551Z,60.4
2019-01-18T06:07:32.358Z,60.4
2019-01-18T06:08:22.749Z,60.4
2019-01-18T06:09:12.473Z,60.4
2019-01-18T06:10:02.784Z,60.4
2019-01-18T06:10:52.818Z,60.4
2019-01-18T06:11:42.864Z,60.3
2019-01-18T06:12:32.673Z,60.3
2019-01-18T06:13:23.013Z,60.3
2019-01-18T06:14:12.493Z,60.3
2019-01-18T06:15:02.635Z,60.3
2019-01-18T06:15:52.950Z,60.3
2019-01-18T06:16:43.224Z,60.3
2019-01-18T06:17:33.298Z,60.3
2019-01-18T06:18:22.783Z,60.3
2019-01-18T06:19:13.390Z,60.3
2019-01-18T06:20:03.328Z,60.3
2019-01-18T06:20:53.475Z,60.3
2019-01-18T06:21:43.548Z,60.3
2019-01-18T06:22:33.620Z,60.3
2019-01-18T06:23:23.730Z,60.2
2019-01-18T06:24:12.897Z,60.2
2019-01-18T06:25:03.908Z,60.2
2019-01-18T06:25:53.574Z,60.2
2019-01-18T06:26:43.902Z,60.2
2019-01-18T06:27:33.460Z,60.2
2019-01-18T06:28:23.462Z,60.2
2019-01-18T06:29:14.035Z,60.1
2019-01-18T06:30:04.157Z,60.1
2019-01-18T06:30:54.179Z,60.1
2019-01-18T06:31:44.224Z,60.1
2019-01-18T06:32:33.984Z,60.1
2019-01-18T06:33:24.371Z,60.1
2019-01-18T06:34:14.167Z,60.1
2019-01-18T06:35:04.503Z,60.1
2019-01-18T06:35:53.991Z,60.1
2019-01-18T06:36:43.605Z,60.1
2019-01-18T06:37:34.124Z,60.1
2019-01-18T06:38:24.666Z,60.1
2019-01-18T06:39:14.734Z,60
2019-01-18T06:40:04.784Z,60
2019-01-18T06:40:54.833Z,60
2019-01-18T06:41:44.892Z,60
2019-01-18T06:42:34.416Z,60
2019-01-18T06:43:25.008Z,60
2019-01-18T06:44:15.063Z,60
2019-01-18T06:45:04.853Z,59.9
2019-01-18T06:45:55.174Z,59.9
2019-01-18T06:46:44.494Z,59.9
2019-01-18T06:47:35.031Z,59.9
2019-01-18T06:48:25.373Z,59.9
2019-01-18T06:49:15.128Z,59.9
2019-01-18T06:50:05.195Z,59.9
2019-01-18T06:50:55.496Z,59.9
2019-01-18T06:51:45.305Z,59.9
2019-01-18T06:52:35.393Z,59.9
2019-01-18T06:53:25.676Z,59.9
2019-01-18T06:54:15.733Z,59.9
2019-01-18T06:55:05.533Z,59.9
2019-01-18T06:55:55.850Z,59.9
2019-01-18T06:56:45.640Z,59.8
2019-01-18T06:57:35.688Z,59.8
2019-01-18T06:58:25.747Z,59.8
2019-01-18T06:59:15.798Z,59.8
2019-01-18T07:00:05.947Z,59.8
2019-01-18T07:00:56.200Z,59.8
2019-01-18T07:01:45.690Z,59.8
2019-01-18T07:02:35.767Z,59.8
2019-01-18T07:03:26.083Z,59.8
2019-01-18T07:04:16.190Z,59.8
2019-01-18T07:06:41.947Z,59.7
2019-01-18T07:07:31.974Z,59.8
2019-01-18T07:08:22.049Z,59.7
2019-01-18T07:09:12.372Z,59.7
2019-01-18T07:10:02.719Z,59.7
2019-01-18T07:10:52.202Z,59.7
2019-01-18T07:11:42.262Z,59.6
2019-01-18T07:12:32.597Z,59.7
2019-01-18T07:13:22.657Z,59.6
2019-01-18T07:14:12.706Z,59.6
2019-01-18T07:15:03.172Z,59.6
2019-01-18T07:15:53.084Z,59.6
2019-01-18T07:16:42.594Z,59.6
2019-01-18T07:17:32.392Z,59.6
2019-01-18T07:18:24.325Z,59.6
2019-01-18T07:19:13.037Z,59.6
2019-01-18T07:20:03.376Z,59.6
2019-01-18T07:20:52.885Z,59.6
2019-01-18T07:21:43.508Z,59.6
2019-01-18T07:22:33.262Z,59.6
2019-01-18T07:23:23.321Z,59.6
2019-01-18T07:24:13.699Z,59.5
2019-01-18T07:25:03.473Z,59.5
2019-01-18T07:25:53.526Z,59.5
2019-01-18T07:26:43.571Z,59.5
2019-01-18T07:27:33.732Z,59.5
2019-01-18T07:28:23.689Z,59.5
2019-01-18T07:29:14.023Z,59.4
2019-01-18T07:30:04.086Z,59.4
2019-01-18T07:30:53.824Z,59.4
2019-01-18T07:31:43.636Z,59.4
2019-01-18T07:32:33.705Z,59.4
2019-01-18T07:33:24.026Z,59.4
2019-01-18T07:34:14.346Z,59.4
2019-01-18T07:35:04.418Z,59.4
2019-01-18T07:35:54.445Z,59.4
2019-01-18T07:36:44.247Z,59.4
2019-01-18T07:37:34.086Z,59.4
2019-01-18T07:38:23.785Z,59.4
2019-01-18T07:39:13.848Z,59.4
2019-01-18T07:40:04.765Z,59.4
2019-01-18T07:40:54.528Z,59.3
2019-01-18T07:41:44.618Z,59.3
2019-01-18T07:42:34.935Z,59.3
2019-01-18T07:43:24.985Z,59.3
2019-01-18T07:44:14.811Z,59.3
2019-01-18T07:45:05.124Z,59.3
2019-01-18T07:45:54.333Z,59.3
2019-01-18T07:46:44.994Z,59.3
2019-01-18T07:47:34.992Z,59.3
2019-01-18T07:48:25.332Z,59.3
2019-01-18T07:49:15.120Z,59.3
2019-01-18T07:50:04.930Z,59.3
2019-01-18T07:50:54.658Z,59.3
2019-01-18T07:51:45.320Z,59.3
2019-01-18T07:52:35.607Z,59.2
2019-01-18T07:53:25.667Z,59.2
2019-01-18T07:54:15.164Z,59.1
2019-01-18T07:55:04.947Z,59.2
2019-01-18T07:55:55.277Z,59.2
2019-01-18T07:56:45.894Z,59.2
2019-01-18T07:57:35.416Z,59.1
2019-01-18T07:58:25.449Z,59.1
2019-01-18T07:59:15.771Z,59.1
2019-01-18T08:00:06.142Z,59.1
2019-01-18T08:00:57.536Z,59.1
2019-01-18T08:01:45.687Z,59.1
2019-01-18T08:02:36.021Z,59.1
2019-01-18T08:03:26.094Z,59.1
2019-01-18T08:04:15.872Z,59.1
2019-01-18T08:05:05.946Z,59.1
2019-01-18T08:05:55.971Z,59.1
2019-01-18T08:06:46.023Z,59
2019-01-18T08:07:36.633Z,59
2019-01-18T08:08:26.418Z,59
2019-01-18T08:09:16.779Z,59
2019-01-18T08:10:06.518Z,59
2019-01-18T08:10:56.873Z,59
2019-01-18T08:11:46.418Z,59
2019-01-18T08:12:36.418Z,59
2019-01-18T08:13:27.029Z,58.9
2019-01-18T08:14:16.820Z,58.9
2019-01-18T08:15:07.155Z,58.9
2019-01-18T08:15:57.204Z,58.9
2019-01-18T08:16:46.958Z,58.9
2019-01-18T08:17:37.329Z,58.9
2019-01-18T08:18:26.813Z,58.9
2019-01-18T08:19:17.150Z,58.9
2019-01-18T08:20:07.487Z,58.9
2019-01-18T08:20:57.273Z,58.9
2019-01-18T08:21:47.606Z,58.9
2019-01-18T08:22:37.112Z,58.9
2019-01-18T08:23:27.430Z,58.9
2019-01-18T08:24:17.770Z,58.9
2019-01-18T08:25:07.295Z,58.8
2019-01-18T08:25:57.327Z,58.8
2019-01-18T08:26:47.715Z,58.8
2019-01-18T08:27:37.730Z,58.8
2019-01-18T08:28:28.054Z,58.8
2019-01-18T08:29:17.852Z,58.8
2019-01-18T08:30:07.907Z,58.8
2019-01-18T08:30:57.950Z,58.8
2019-01-18T08:31:48.284Z,58.8
2019-01-18T08:32:38.087Z,58.8
2019-01-18T08:33:27.847Z,58.8
2019-01-18T08:34:17.704Z,58.7
2019-01-18T08:35:08.519Z,58.7
2019-01-18T08:35:58.090Z,58.8
2019-01-18T08:36:48.075Z,58.7
2019-01-18T08:37:38.407Z,58.7
2019-01-18T08:38:28.222Z,58.7
2019-01-18T08:39:18.534Z,58.7
2019-01-18T08:40:08.579Z,58.7
2019-01-18T08:40:58.931Z,58.6
2019-01-18T08:41:48.742Z,58.6
2019-01-18T08:42:38.768Z,58.6
2019-01-18T08:43:28.536Z,58.6
2019-01-18T08:44:18.868Z,58.6
2019-01-18T08:50:59.308Z,58.5
2019-01-18T08:52:39.446Z,58.5
2019-01-18T08:53:29.216Z,58.5
2019-01-18T08:54:19.824Z,58.5
2019-01-18T08:55:09.339Z,58.5
2019-01-18T08:55:59.658Z,58.5
2019-01-18T08:56:49.433Z,58.4
2019-01-18T08:57:39.831Z,58.4
2019-01-18T08:58:29.077Z,58.4
2019-01-18T08:59:19.656Z,58.4
2019-01-18T09:00:09.718Z,58.4
2019-01-18T09:00:59.162Z,58.4
2019-01-18T09:01:50.361Z,58.4
2019-01-18T09:02:40.117Z,58.4
2019-01-18T09:03:30.465Z,58.4
2019-01-18T09:04:19.400Z,58.4
2019-01-18T09:05:11.108Z,58.4
2019-01-18T09:06:00.378Z,58.4
2019-01-18T09:06:49.937Z,58.3
2019-01-18T09:07:39.902Z,58.3
2019-01-18T09:08:30.561Z,58.3
2019-01-18T09:09:20.350Z,58.3
2019-01-18T09:10:10.632Z,58.3
2019-01-18T09:11:00.417Z,58.3
2019-01-18T09:11:50.500Z,58.3
2019-01-18T09:12:41.080Z,58.3
2019-01-18T09:13:31.129Z,58.3
2019-01-18T09:14:23.180Z,58.3
2019-01-18T09:15:10.720Z,58.3
2019-01-18T09:16:00.461Z,58.3
2019-01-18T09:16:50.811Z,58.3
2019-01-18T09:17:41.169Z,58.3
2019-01-18T09:18:32.712Z,58.3
2019-01-18T09:19:20.431Z,58.2
2019-01-18T09:20:11.064Z,58.2
2019-01-18T09:21:01.658Z,58.2
2019-01-18T09:21:51.713Z,58.2
2019-01-18T09:22:41.760Z,58.2
2019-01-18T09:23:31.831Z,58.1
2019-01-18T09:24:21.396Z,58.1
2019-01-18T09:25:11.389Z,58.1
2019-01-18T09:26:01.436Z,58.1
2019-01-18T09:26:51.493Z,58.1
2019-01-18T09:27:42.126Z,58.1
2019-01-18T09:28:31.049Z,58.1
2019-01-18T09:29:22.279Z,58.1
2019-01-18T09:30:11.738Z,58.1
2019-01-18T09:31:02.340Z,58.1
2019-01-18T09:31:52.130Z,58.1
2019-01-18T09:32:42.176Z,58.1
2019-01-18T09:33:32.236Z,58.1
2019-01-18T09:34:22.588Z,58
2019-01-18T09:35:12.058Z,58
2019-01-18T09:36:02.123Z,58
2019-01-18T09:36:52.713Z,58
2019-01-18T09:37:42.788Z,58
2019-01-18T09:38:32.585Z,58
2019-01-18T09:39:22.630Z,58
2019-01-18T09:40:12.975Z,57.9
2019-01-18T09:41:02.454Z,57.9
2019-01-18T09:41:53.093Z,57.9
2019-01-18T09:42:42.897Z,57.9
2019-01-18T09:43:32.642Z,57.9
2019-01-18T09:44:22.977Z,57.9
2019-01-18T09:45:13.310Z,57.9
2019-01-18T09:46:03.082Z,57.9
2019-01-18T09:46:53.437Z,57.9
2019-01-18T09:47:43.474Z,57.9
2019-01-18T09:48:32.980Z,57.9
2019-01-18T09:49:23.052Z,57.9
2019-01-18T09:50:13.422Z,57.8
2019-01-18T09:51:03.429Z,57.8
2019-01-18T09:51:53.491Z,57.8
2019-01-18T09:52:43.543Z,57.8
2019-01-18T09:53:33.606Z,57.8
2019-01-18T09:54:22.829Z,57.8
2019-01-18T09:55:13.424Z,57.8
2019-01-18T09:56:03.782Z,57.8
2019-01-18T10:01:05.062Z,57.7
2019-01-18T10:01:53.624Z,57.7
2019-01-18T10:02:43.966Z,57.7
2019-01-18T10:03:34.286Z,57.7
2019-01-18T10:04:24.358Z,57.7
2019-01-18T10:05:14.401Z,57.7
2019-01-18T10:07:41.583Z,57.6
2019-01-18T10:08:32.111Z,57.6
2019-01-18T10:09:22.444Z,57.6
2019-01-18T10:10:11.730Z,57.6
2019-01-18T10:11:01.225Z,57.6
2019-01-18T10:11:52.051Z,57.6
2019-01-18T10:12:41.896Z,57.6
2019-01-18T10:13:33.955Z,57.6
2019-01-18T10:14:22.774Z,57.6
2019-01-18T10:15:11.883Z,57.6
2019-01-18T10:16:02.468Z,57.6
2019-01-18T10:16:52.191Z,57.6
2019-01-18T10:17:42.715Z,57.5
2019-01-18T10:18:32.020Z,57.5
2019-01-18T10:19:23.126Z,57.5
2019-01-18T10:20:12.897Z,57.5
2019-01-18T10:21:03.323Z,57.5
2019-01-18T10:21:52.498Z,57.5
2019-01-18T10:22:41.757Z,57.4
2019-01-18T10:23:32.380Z,57.4
2019-01-18T10:24:24.692Z,57.4
2019-01-18T10:25:13.282Z,57.4
2019-01-18T10:26:03.312Z,57.4
2019-01-18T10:26:53.335Z,57.4
2019-01-18T10:27:43.409Z,57.4
2019-01-18T10:28:33.192Z,57.4
2019-01-18T10:29:30.188Z,57.4
2019-01-18T10:30:13.912Z,57.4
2019-01-18T10:31:03.990Z,57.4
2019-01-18T10:31:59.854Z,57.3
2019-01-18T10:32:43.500Z,57.4
2019-01-18T10:33:33.822Z,57.3
2019-01-18T10:34:24.168Z,57.3
2019-01-18T10:35:14.209Z,57.3
2019-01-18T10:36:03.162Z,57.3
2019-01-18T10:36:55.412Z,57.3
2019-01-18T10:37:44.399Z,57.3
2019-01-18T10:38:34.437Z,57.3
2019-01-18T10:39:24.486Z,57.3
2019-01-18T10:40:14.541Z,57.3
2019-01-18T10:41:04.609Z,57.3
2019-01-18T10:41:53.875Z,57.3
2019-01-18T10:42:44.451Z,57.3
2019-01-18T10:43:34.499Z,57.2
2019-01-18T10:44:24.896Z,57.3
2019-01-18T10:45:14.347Z,57.2
2019-01-18T10:46:04.679Z,57.2
2019-01-18T10:46:54.184Z,57.2
2019-01-18T10:47:44.236Z,57.2
2019-01-18T10:48:34.911Z,57.2
2019-01-18T10:49:24.899Z,57.1
2019-01-18T10:50:14.731Z,57.1
2019-01-18T10:51:05.313Z,57.1
2019-01-18T10:51:55.087Z,57.1
2019-01-18T10:52:44.854Z,57.1
2019-01-18T10:53:35.236Z,57.1
2019-01-18T10:54:25.244Z,57.1
2019-01-18T10:55:15.600Z,57.1
2019-01-18T10:56:05.135Z,57.1
2019-01-18T10:56:55.131Z,57.1
2019-01-18T10:57:45.503Z,57.1
2019-01-18T10:58:35.850Z,57.1
2019-01-18T10:59:25.588Z,57
2019-01-18T11:00:15.655Z,57
2019-01-18T11:01:05.413Z,57
2019-01-18T11:02:09.221Z,57
2019-01-18T11:02:45.792Z,57
2019-01-18T11:03:35.838Z,57
2019-01-18T11:04:25.645Z,57
2019-01-18T11:05:16.294Z,56.9
2019-01-18T11:06:06.320Z,56.9
2019-01-18T11:06:55.813Z,56.9
2019-01-18T11:07:45.844Z,56.9
2019-01-18T11:08:35.907Z,56.9
2019-01-18T11:09:26.239Z,56.9
2019-01-18T11:10:16.296Z,56.9
2019-01-18T11:11:06.078Z,56.9
2019-01-18T11:11:56.137Z,56.9
2019-01-18T11:12:46.457Z,56.9
2019-01-18T11:13:36.532Z,56.9
2019-01-18T11:14:26.602Z,56.9
2019-01-18T11:15:16.644Z,56.9
2019-01-18T11:16:06.719Z,56.9
2019-01-18T11:16:56.832Z,56.8
2019-01-18T11:17:47.100Z,56.8
2019-01-18T11:18:37.146Z,56.8
2019-01-18T11:19:26.921Z,56.8
2019-01-18T11:20:16.719Z,56.8
2019-01-18T11:21:07.324Z,56.8
2019-01-18T11:21:57.083Z,56.8
2019-01-18T11:22:46.882Z,56.8
2019-01-18T11:23:37.493Z,56.8
2019-01-18T11:24:27.259Z,56.8
2019-01-18T11:25:18.406Z,56.8
2019-01-18T11:26:07.116Z,56.8
2019-01-18T11:26:57.161Z,56.7
2019-01-18T11:27:47.771Z,56.7
2019-01-18T11:28:37.349Z,56.7
2019-01-18T11:29:27.603Z,56.7
2019-01-18T11:30:17.955Z,56.7
2019-01-18T11:31:07.459Z,56.7
2019-01-18T11:31:58.049Z,56.7
2019-01-18T11:32:47.558Z,56.7
2019-01-18T11:33:37.643Z,56.6
2019-01-18T11:34:27.381Z,56.6
2019-01-18T11:35:18.320Z,56.6
2019-01-18T11:36:08.050Z,56.6
2019-01-18T11:37:01.088Z,56.6
2019-01-18T11:37:48.178Z,56.6
2019-01-18T11:38:38.235Z,56.6
2019-01-18T11:39:28.338Z,56.6
2019-01-18T11:40:18.070Z,56.6
2019-01-18T11:41:08.424Z,56.6
2019-01-18T11:41:58.185Z,56.6
2019-01-18T11:42:48.575Z,56.6
2019-01-18T11:43:38.300Z,56.5
2019-01-18T11:44:28.640Z,56.5
2019-01-18T11:45:19.005Z,56.5
2019-01-18T11:46:08.202Z,56.5
2019-01-18T11:46:58.802Z,56.5
2019-01-18T11:47:48.865Z,56.5
2019-01-18T11:48:39.212Z,56.4
2019-01-18T11:49:29.252Z,56.4
2019-01-18T11:50:19.322Z,56.4
2019-01-18T11:51:08.814Z,56.4
2019-01-18T11:51:59.440Z,56.4
2019-01-18T11:52:48.924Z,56.4
2019-01-18T11:53:39.277Z,56.4
2019-01-18T11:54:29.331Z,56.4
2019-01-18T11:55:19.407Z,56.4
2019-01-18T11:56:09.740Z,56.4
2019-01-18T11:56:59.517Z,56.4
2019-01-18T11:57:49.585Z,56.4
2019-01-18T11:58:39.616Z,56.4
2019-01-18T11:59:29.664Z,56.4
2019-01-18T12:00:19.729Z,56.3
2019-01-18T12:01:09.780Z,56.3
2019-01-18T12:01:59.825Z,56.3
2019-01-18T12:02:49.887Z,56.3
2019-01-18T12:03:40.216Z,56.3
2019-01-18T12:04:30.036Z,56.3
2019-01-18T12:05:20.104Z,56.3
2019-01-18T12:07:41.674Z,56.3
2019-01-18T12:08:32.284Z,56.3
2019-01-18T12:09:22.339Z,56.3
2019-01-18T12:10:12.394Z,56.3
2019-01-18T12:11:02.469Z,56.2
2019-01-18T12:11:52.494Z,56.2
2019-01-18T12:12:42.283Z,56.2
2019-01-18T12:13:32.072Z,56.2
2019-01-18T12:14:22.721Z,56.2
2019-01-18T12:15:12.458Z,56.1
2019-01-18T12:16:02.248Z,56.1
2019-01-18T12:16:52.580Z,56.1
2019-01-18T12:17:42.635Z,56.1
2019-01-18T12:18:32.690Z,56.1
2019-01-18T12:19:22.748Z,56.1
2019-01-18T12:20:12.798Z,56.1
2019-01-18T12:21:02.310Z,56.1
2019-01-18T12:21:52.361Z,56.1
2019-01-18T12:22:43.005Z,56.1
2019-01-18T12:23:33.020Z,56.1
2019-01-18T12:24:23.089Z,56.1
2019-01-18T12:25:13.420Z,56.1
2019-01-18T12:26:03.512Z,56.1
2019-01-18T12:26:53.249Z,56.1
2019-01-18T12:27:43.066Z,56
2019-01-18T12:28:33.093Z,56
2019-01-18T12:29:24.988Z,56
2019-01-18T12:30:13.757Z,56
2019-01-18T12:31:03.823Z,56
2019-01-18T12:31:53.611Z,56
2019-01-18T12:32:43.372Z,55.9
2019-01-18T12:33:33.421Z,55.9
2019-01-18T12:34:23.768Z,55.9
2019-01-18T12:35:13.273Z,55.9
2019-01-18T12:36:03.610Z,55.9
2019-01-18T12:37:01.553Z,55.9
2019-01-18T12:37:44.280Z,55.9
2019-01-18T12:38:33.303Z,55.9
2019-01-18T12:39:24.393Z,55.9
2019-01-18T12:40:14.168Z,55.9
2019-01-18T12:41:03.128Z,55.9
2019-01-18T12:41:54.015Z,55.9
2019-01-18T12:42:44.077Z,55.9
2019-01-18T12:43:34.120Z,55.8
2019-01-18T12:44:24.743Z,55.8
2019-01-18T12:45:13.962Z,55.8
2019-01-18T12:46:04.301Z,55.8
2019-01-18T12:46:54.372Z,55.8
2019-01-18T12:47:44.412Z,55.8
2019-01-18T12:48:34.195Z,55.8
2019-01-18T12:49:25.097Z,55.8
2019-01-18T12:50:15.130Z,55.8
2019-01-18T12:51:06.412Z,55.8
2019-01-18T12:51:54.697Z,55.8
2019-01-18T12:52:44.747Z,55.8
2019-01-18T12:53:35.077Z,55.8
2019-01-18T12:54:25.439Z,55.7
2019-01-18T12:55:15.464Z,55.7
2019-01-18T12:56:05.247Z,55.7
2019-01-18T12:56:55.297Z,55.7
2019-01-18T12:57:44.542Z,55.7
2019-01-18T12:58:35.435Z,55.7
2019-01-18T12:59:25.777Z,55.6
2019-01-18T13:00:15.587Z,55.7
2019-01-18T13:01:05.312Z,55.6
2019-01-18T13:01:55.665Z,55.6
2019-01-18T13:02:45.706Z,55.6
2019-01-18T13:03:35.774Z,55.6
2019-01-18T13:04:25.597Z,55.6
2019-01-18T13:05:15.386Z,55.6
2019-01-18T13:06:05.666Z,55.6
2019-01-18T13:06:55.779Z,55.6
2019-01-18T13:07:45.534Z,55.6
2019-01-18T13:08:37.436Z,55.5
2019-01-18T13:09:26.182Z,55.5
2019-01-18T13:10:16.039Z,55.5
2019-01-18T13:11:05.751Z,55.5
2019-01-18T13:11:56.646Z,55.5
2019-01-18T13:12:46.451Z,55.5
2019-01-18T13:13:35.915Z,55.5
2019-01-18T13:14:26.273Z,55.4
2019-01-18T13:15:16.328Z,55.4
2019-01-18T13:16:06.996Z,55.4
2019-01-18T13:16:56.992Z,55.4
2019-01-18T13:17:47.023Z,55.4
2019-01-18T13:18:36.550Z,55.4
2019-01-18T13:19:26.932Z,55.4
2019-01-18T13:20:16.656Z,55.4
2019-01-18T13:21:06.727Z,55.4
2019-01-18T13:21:56.473Z,55.4
2019-01-18T13:22:47.135Z,55.4
2019-01-18T13:23:36.885Z,55.3
2019-01-18T13:24:27.241Z,55.3
2019-01-18T13:25:16.745Z,55.3
2019-01-18T13:26:07.667Z,55.3
2019-01-18T13:26:57.120Z,55.3
2019-01-18T13:27:47.718Z,55.3
2019-01-18T13:28:37.215Z,55.3
2019-01-18T13:29:27.303Z,55.3
2019-01-18T13:30:17.912Z,55.3
2019-01-18T13:31:07.390Z,55.3
2019-01-18T13:31:58.020Z,55.3
2019-01-18T13:32:47.805Z,55.3
2019-01-18T13:33:38.120Z,55.3
2019-01-18T13:34:27.938Z,55.3
2019-01-18T13:35:17.282Z,55.2
2019-01-18T13:36:08.012Z,55.2
2019-01-18T13:36:57.822Z,55.2
2019-01-18T13:37:48.420Z,55.2
2019-01-18T13:38:38.192Z,55.2
2019-01-18T13:39:27.998Z,55.2
2019-01-18T13:40:18.332Z,55.1
2019-01-18T13:41:08.368Z,55.1
2019-01-18T13:41:58.190Z,55.1
2019-01-18T13:42:48.504Z,55.1
2019-01-18T13:43:38.589Z,55.1
2019-01-18T13:44:28.882Z,55.1
2019-01-18T13:45:18.116Z,55.1
2019-01-18T13:46:08.442Z,55.1
2019-01-18T13:46:58.766Z,55.1
2019-01-18T13:47:49.141Z,55.1
2019-01-18T13:48:38.611Z,55.1
2019-01-18T13:49:29.264Z,55
2019-01-18T13:50:19.288Z,55.1
2019-01-18T13:51:09.049Z,55
2019-01-18T13:51:59.143Z,55
2019-01-18T13:52:50.641Z,55
2019-01-18T13:53:39.500Z,55
2019-01-18T13:54:29.347Z,55